createdAt,value
2022-12-29T00:00:08.048Z,99327.25
2022-12-29T00:02:34.436Z,99330.44
2022-12-29T00:05:00.852Z,99324.69
2022-12-29T00:07:27.184Z,99337.44
2022-12-29T00:09:53.508Z,99332.50
2022-12-29T00:12:19.885Z,99320.75
2022-12-29T00:14:46.184Z,99331.38
2022-12-29T00:17:12.792Z,99329.47
2022-12-29T00:19:39.340Z,99320.91
2022-12-29T00:22:05.740Z,99319.94
2022-12-29T00:24:32.046Z,99315.13
2022-12-29T00:27:04.422Z,99310.06
2022-12-29T00:29:30.740Z,99289.97
2022-12-29T00:31:57.036Z,99296.66
2022-12-29T00:34:23.337Z,99288.22
2022-12-29T00:36:49.695Z,99277.69
2022-12-29T00:39:19.469Z,99269.09
2022-12-29T00:41:46.178Z,99277.22
2022-12-29T00:44:14.774Z,99273.56
2022-12-29T00:46:43.292Z,99282.00
2022-12-29T00:49:12.636Z,99282.00
2022-12-29T00:51:39.001Z,99282.97
2022-12-29T00:54:05.368Z,99268.78
2022-12-29T00:56:31.681Z,99272.44
2022-12-29T00:59:01.920Z,99276.44
2022-12-29T01:01:28.491Z,99275.94
2022-12-29T01:04:00.126Z,99260.50
2022-12-29T01:06:28.423Z,99261.59
2022-12-29T01:08:54.808Z,99259.53
2022-12-29T01:11:21.111Z,99256.50
2022-12-29T01:13:47.414Z,99248.84
2022-12-29T01:16:13.754Z,99233.84
2022-12-29T01:18:40.450Z,99252.66
2022-12-29T01:21:07.416Z,99247.59
2022-12-29T01:23:34.415Z,99238.63
2022-12-29T01:26:14.562Z,99234.97
2022-12-29T01:28:41.094Z,99230.69
2022-12-29T01:31:11.438Z,99230.19
2022-12-29T01:33:38.245Z,99223.97
2022-12-29T01:36:07.010Z,99219.81
2022-12-29T01:38:35.431Z,99215.69
2022-12-29T01:41:02.467Z,99209.28
2022-12-29T01:43:48.599Z,99207.88
2022-12-29T01:46:19.419Z,99206.13
2022-12-29T01:48:47.200Z,99205.47
2022-12-29T01:51:13.594Z,99196.88
2022-12-29T01:53:40.562Z,99196.88
2022-12-29T01:56:11.157Z,99185.41
2022-12-29T01:58:42.471Z,99188.91
2022-12-29T02:01:09.153Z,99185.88
2022-12-29T02:03:37.284Z,99184.91
2022-12-29T02:06:12.245Z,99182.16
2022-12-29T02:08:39.455Z,99184.75
2022-12-29T02:11:06.723Z,99187.31
2022-12-29T02:13:33.098Z,99187.94
2022-12-29T02:16:36.519Z,99175.81
2022-12-29T02:19:21.515Z,99180.59
2022-12-29T02:22:02.262Z,99174.72
2022-12-29T02:24:58.993Z,99173.16
2022-12-29T02:27:31.283Z,99178.09
2022-12-29T02:30:09.737Z,99170.13
2022-12-29T02:32:54.902Z,99156.75
2022-12-29T02:35:31.360Z,99164.72
2022-12-29T02:38:28.085Z,99159.44
2022-12-29T02:41:03.219Z,99169.34
2022-12-29T02:43:59.003Z,99168.53
2022-12-29T02:46:38.010Z,99155.63
2022-12-29T02:49:18.835Z,99165.47
2022-12-29T02:51:53.461Z,99158.47
2022-12-29T02:54:20.167Z,99154.16
2022-12-29T02:56:46.491Z,99142.19
2022-12-29T02:59:13.345Z,99139.81
2022-12-29T03:02:12.756Z,99132.47
2022-12-29T03:05:05.354Z,99131.19
2022-12-29T03:07:51.251Z,99130.22
2022-12-29T03:10:46.251Z,99131.81
2022-12-29T03:13:31.863Z,99125.75
2022-12-29T03:16:30.544Z,99125.41
2022-12-29T03:19:15.372Z,99118.22
2022-12-29T03:21:56.336Z,99113.41
2022-12-29T03:24:33.471Z,99108.84
2022-12-29T03:27:03.675Z,99110.75
2022-12-29T03:29:33.438Z,99112.19
2022-12-29T03:32:03.502Z,99109.13
2022-12-29T03:34:32.109Z,99100.97
2022-12-29T03:37:03.701Z,99099.66
2022-12-29T03:39:30.011Z,99107.16
2022-12-29T03:42:00.789Z,99098.06
2022-12-29T03:44:36.238Z,99096.09
2022-12-29T03:47:03.027Z,99077.72
2022-12-29T03:49:29.341Z,99075.69
2022-12-29T03:51:55.638Z,99072.31
2022-12-29T03:54:22.078Z,99078.09
2022-12-29T03:56:48.379Z,99075.69
2022-12-29T03:59:14.676Z,99090.06
2022-12-29T04:01:41.373Z,99078.28
2022-12-29T04:04:07.728Z,99078.41
2022-12-29T04:06:34.023Z,99078.09
2022-12-29T04:09:00.442Z,99082.72
2022-12-29T04:11:32.696Z,99077.13
2022-12-29T04:13:59.503Z,99063.84
2022-12-29T04:16:25.906Z,99075.47
2022-12-29T04:18:52.276Z,99077.22
2022-12-29T04:21:18.624Z,99066.63
2022-12-29T04:23:44.950Z,99085.47
2022-12-29T04:26:11.480Z,99079.59
2022-12-29T04:28:38.003Z,99090.72
2022-12-29T04:31:04.907Z,99064.69
2022-12-29T04:33:31.872Z,99082.09
2022-12-29T04:35:58.196Z,99082.91
2022-12-29T04:38:24.966Z,99085.28
2022-12-29T04:40:52.154Z,99084.22
2022-12-29T04:43:18.883Z,99076.44
2022-12-29T04:45:46.371Z,99078.66
2022-12-29T04:48:13.223Z,99069.56
2022-12-29T04:50:40.139Z,99085.44
2022-12-29T04:53:07.020Z,99086.38
2022-12-29T04:55:33.705Z,99090.56
2022-12-29T04:58:00.198Z,99083.75
2022-12-29T05:00:26.802Z,99102.41
2022-12-29T05:02:53.333Z,99107.34
2022-12-29T05:05:19.858Z,99100.06
2022-12-29T05:07:46.165Z,99088.47
2022-12-29T05:10:12.597Z,99088.34
2022-12-29T05:12:39.653Z,99083.84
2022-12-29T05:15:07.840Z,99079.97
2022-12-29T05:17:34.511Z,99074.75
2022-12-29T05:20:00.836Z,99075.09
2022-12-29T05:22:27.159Z,99068.75
2022-12-29T05:24:53.569Z,99064.91
2022-12-29T05:27:19.938Z,99064.44
2022-12-29T05:29:46.259Z,99057.25
2022-12-29T05:32:12.551Z,99045.59
2022-12-29T05:34:38.868Z,99045.28
2022-12-29T05:37:05.377Z,99035.84
2022-12-29T05:39:31.677Z,99031.38
2022-12-29T05:41:58.031Z,99027.59
2022-12-29T05:44:24.534Z,99024.34
2022-12-29T05:46:50.910Z,99021.00
2022-12-29T05:49:17.720Z,99026.06
2022-12-29T05:51:44.757Z,99029.53
2022-12-29T05:54:11.092Z,99023.31
2022-12-29T05:56:37.476Z,99031.22
2022-12-29T05:59:03.762Z,99018.56
2022-12-29T06:01:30.125Z,99028.44
2022-12-29T06:03:56.641Z,99027.91
2022-12-29T06:06:23.060Z,99031.09
2022-12-29T06:08:49.390Z,99030.22
2022-12-29T06:11:15.716Z,99018.94
2022-12-29T06:13:42.010Z,99022.09
2022-12-29T06:16:08.344Z,99010.91
2022-12-29T06:18:34.691Z,99016.66
2022-12-29T06:21:05.602Z,99026.34
2022-12-29T06:23:32.028Z,99049.00
2022-12-29T06:25:58.398Z,99100.59
2022-12-29T06:28:24.737Z,99114.19
2022-12-29T06:30:51.053Z,99110.50
2022-12-29T06:33:17.368Z,99117.72
2022-12-29T06:35:44.517Z,99139.06
2022-12-29T06:38:10.819Z,99122.19
2022-12-29T06:40:37.103Z,99129.19
2022-12-29T06:43:03.413Z,99118.81
2022-12-29T06:45:29.952Z,99109.91
2022-12-29T06:47:56.347Z,99105.94
2022-12-29T06:50:22.640Z,99123.28
2022-12-29T06:52:48.952Z,99120.28
2022-12-29T06:55:15.388Z,99136.97
2022-12-29T06:57:41.688Z,99129.25
2022-12-29T07:00:08.848Z,99142.91
2022-12-29T07:02:35.277Z,99138.63
2022-12-29T07:05:01.675Z,99149.59
2022-12-29T07:07:27.997Z,99140.69
2022-12-29T07:09:54.313Z,99142.72
2022-12-29T07:12:20.611Z,99151.63
2022-12-29T07:14:46.995Z,99156.25
2022-12-29T07:17:13.399Z,99158.47
2022-12-29T07:19:40.328Z,99165.63
2022-12-29T07:22:06.636Z,99161.47
2022-12-29T07:24:32.956Z,99163.78
2022-12-29T07:27:02.199Z,99165.22
2022-12-29T07:29:28.517Z,99173.03
2022-12-29T07:31:54.854Z,99170.31
2022-12-29T07:34:21.319Z,99178.09
2022-12-29T07:36:47.642Z,99174.34
2022-12-29T07:39:14.014Z,99171.72
2022-12-29T07:41:40.513Z,99165.19
2022-12-29T07:44:06.849Z,99155.50
2022-12-29T07:46:55.574Z,99169.31
2022-12-29T07:49:19.856Z,99172.66
2022-12-29T07:51:46.165Z,99174.41
2022-12-29T07:54:12.614Z,99186.19
2022-12-29T07:56:39.252Z,99184.31
2022-12-29T07:59:05.658Z,99198.00
2022-12-29T08:01:32.343Z,99198.19
2022-12-29T08:03:58.706Z,99202.66
2022-12-29T08:06:25.042Z,99196.91
2022-12-29T08:08:51.353Z,99203.25
2022-12-29T08:11:17.700Z,99209.28
2022-12-29T08:13:44.067Z,99214.25
2022-12-29T08:16:10.451Z,99206.66
2022-12-29T08:18:36.828Z,99206.66
2022-12-29T08:21:04.300Z,99203.81
2022-12-29T08:23:31.080Z,99213.06
2022-12-29T08:25:59.309Z,99217.88
2022-12-29T08:28:25.695Z,99214.69
2022-12-29T08:30:52.029Z,99226.78
2022-12-29T08:33:18.492Z,99235.66
2022-12-29T08:35:45.288Z,99226.78
2022-12-29T08:38:11.604Z,99236.50
2022-12-29T08:40:38.286Z,99237.63
2022-12-29T08:43:04.589Z,99226.63
2022-12-29T08:45:30.917Z,99227.09
2022-12-29T08:47:57.231Z,99236.50
2022-12-29T08:50:23.729Z,99235.06
2022-12-29T08:52:50.062Z,99238.59
2022-12-29T08:55:16.408Z,99248.47
2022-12-29T08:57:42.710Z,99248.75
2022-12-29T09:00:09.777Z,99241.47
2022-12-29T09:02:36.330Z,99240.50
2022-12-29T09:05:03.066Z,99244.50
2022-12-29T09:07:29.404Z,99247.38
2022-12-29T09:09:55.701Z,99250.25
2022-12-29T09:12:22.000Z,99249.75
2022-12-29T09:14:48.331Z,99249.09
2022-12-29T09:17:14.647Z,99256.59
2022-12-29T09:19:40.940Z,99244.03
2022-12-29T09:22:07.320Z,99240.22
2022-12-29T09:24:33.633Z,99250.72
2022-12-29T09:27:00.000Z,99243.75
2022-12-29T09:29:26.329Z,99255.88
2022-12-29T09:31:52.837Z,99248.03
2022-12-29T09:34:19.155Z,99249.47
2022-12-29T09:36:45.464Z,99247.38
2022-12-29T09:39:13.228Z,99251.81
2022-12-29T09:41:57.944Z,99260.28
2022-12-29T09:44:32.225Z,99260.56
2022-12-29T09:46:59.838Z,99263.31
2022-12-29T09:49:44.705Z,99268.88
2022-12-29T09:52:16.218Z,99265.38
2022-12-29T09:55:02.392Z,99266.34
2022-12-29T09:57:36.335Z,99265.69
2022-12-29T10:00:12.137Z,99258.53
2022-12-29T10:02:43.643Z,99266.53
2022-12-29T10:05:15.815Z,99263.34
2022-12-29T10:08:05.176Z,99258.06
2022-12-29T10:10:42.153Z,99255.81
2022-12-29T10:13:29.030Z,99247.31
2022-12-29T10:16:20.930Z,99265.38
2022-12-29T10:18:58.699Z,99257.75
2022-12-29T10:21:48.627Z,99268.75
2022-12-29T10:24:14.977Z,99265.72
2022-12-29T10:26:43.265Z,99276.91
2022-12-29T10:29:18.692Z,99265.72
2022-12-29T10:31:51.531Z,99264.44
2022-12-29T10:34:48.416Z,99263.78
2022-12-29T10:37:38.326Z,99268.50
2022-12-29T10:40:18.949Z,99262.69
2022-12-29T10:42:51.301Z,99269.38
2022-12-29T10:45:20.128Z,99261.38
2022-12-29T10:47:55.844Z,99254.59
2022-12-29T10:50:23.494Z,99263.84
2022-12-29T10:52:50.087Z,99266.22
2022-12-29T10:55:23.148Z,99257.00
2022-12-29T10:57:49.939Z,99267.63
2022-12-29T11:00:18.133Z,99266.53
2022-12-29T11:02:44.512Z,99264.94
2022-12-29T11:05:23.297Z,99254.25
2022-12-29T11:07:54.640Z,99263.00
2022-12-29T11:10:35.945Z,99257.59
2022-12-29T11:13:11.529Z,99258.34
2022-12-29T11:15:46.405Z,99257.34
2022-12-29T11:18:20.081Z,99251.97
2022-12-29T11:20:46.401Z,99257.41
2022-12-29T11:23:34.095Z,99260.47
2022-12-29T11:26:15.387Z,99247.19
2022-12-29T11:28:45.602Z,99258.72
2022-12-29T11:31:17.174Z,99253.50
2022-12-29T11:33:43.535Z,99261.78
2022-12-29T11:36:18.105Z,99255.75
2022-12-29T11:38:49.667Z,99263.53
2022-12-29T11:41:22.925Z,99269.47
2022-12-29T11:43:49.848Z,99270.38
2022-12-29T11:46:21.801Z,99256.66
2022-12-29T11:48:48.412Z,99266.81
2022-12-29T11:51:25.226Z,99277.25
2022-12-29T11:53:56.993Z,99269.13
2022-12-29T11:56:40.198Z,99259.19
2022-12-29T11:59:29.224Z,99258.56
2022-12-29T12:01:58.588Z,99268.00
2022-12-29T12:04:29.884Z,99268.63
2022-12-29T12:07:25.390Z,99279.16
2022-12-29T12:10:03.104Z,99253.50
2022-12-29T12:12:45.597Z,99275.81
2022-12-29T12:15:32.455Z,99272.31
2022-12-29T12:18:10.425Z,99256.81
2022-12-29T12:20:46.680Z,99280.78
2022-12-29T12:23:26.526Z,99263.84
2022-12-29T12:26:00.496Z,99270.56
2022-12-29T12:28:38.477Z,99271.22
2022-12-29T12:31:14.091Z,99291.13
2022-12-29T12:33:45.145Z,99291.63
2022-12-29T12:36:36.365Z,99290.34
2022-12-29T12:39:11.639Z,99282.97
2022-12-29T12:41:56.175Z,99313.78
2022-12-29T12:44:36.767Z,99294.50
2022-12-29T12:47:31.036Z,99302.31
2022-12-29T12:50:25.776Z,99302.00
2022-12-29T12:53:14.296Z,99299.28
2022-12-29T12:55:53.323Z,99319.56
2022-12-29T12:58:46.013Z,99318.78
2022-12-29T13:01:23.816Z,99321.50
2022-12-29T13:04:10.903Z,99326.41
2022-12-29T13:06:55.935Z,99328.50
2022-12-29T13:09:31.036Z,99341.91
2022-12-29T13:12:15.690Z,99348.00
2022-12-29T13:14:58.587Z,99338.41
2022-12-29T13:17:41.179Z,99357.84
2022-12-29T13:20:24.949Z,99357.41
2022-12-29T13:23:08.623Z,99360.75
2022-12-29T13:25:59.820Z,99356.13
2022-12-29T13:28:43.941Z,99373.19
2022-12-29T13:31:15.694Z,99368.41
2022-12-29T13:33:56.843Z,99359.00
2022-12-29T13:36:30.433Z,99377.97
2022-12-29T13:39:14.789Z,99377.50
2022-12-29T13:41:49.764Z,99378.34
2022-12-29T13:44:21.496Z,99390.13
2022-12-29T13:46:50.132Z,99388.34
2022-12-29T13:49:19.795Z,99398.75
2022-12-29T13:51:58.610Z,99409.59
2022-12-29T13:54:48.264Z,99412.47
2022-12-29T13:57:42.841Z,99407.34
2022-12-29T14:00:21.305Z,99414.38
2022-12-29T14:02:47.654Z,99422.97
2022-12-29T14:05:23.410Z,99422.19
2022-12-29T14:07:58.833Z,99416.47
2022-12-29T14:10:29.928Z,99419.31
2022-12-29T14:13:11.897Z,99413.25
2022-12-29T14:15:44.988Z,99428.25
2022-12-29T14:18:21.911Z,99427.44
2022-12-29T14:20:58.539Z,99431.09
2022-12-29T14:23:30.142Z,99431.72
2022-12-29T14:26:00.592Z,99427.09
2022-12-29T14:28:32.548Z,99437.69
2022-12-29T14:31:06.532Z,99439.94
2022-12-29T14:33:34.795Z,99442.16
2022-12-29T14:36:26.216Z,99447.22
2022-12-29T14:38:52.652Z,99451.03
2022-12-29T14:41:25.173Z,99446.44
2022-12-29T14:43:55.611Z,99454.28
2022-12-29T14:46:22.011Z,99457.31
2022-12-29T14:48:48.514Z,99454.47
2022-12-29T14:51:29.242Z,99451.28
2022-12-29T14:53:55.648Z,99455.94
2022-12-29T14:56:28.853Z,99472.34
2022-12-29T14:59:02.687Z,99464.69
2022-12-29T15:01:40.803Z,99473.28
2022-12-29T15:04:18.172Z,99467.84
2022-12-29T15:06:45.270Z,99479.16
2022-12-29T15:09:28.334Z,99484.13
2022-12-29T15:12:00.157Z,99494.31
2022-12-29T15:14:31.548Z,99485.72
2022-12-29T15:16:58.588Z,99489.81
2022-12-29T15:19:27.458Z,99492.00
2022-12-29T15:21:55.568Z,99487.59
2022-12-29T15:24:21.961Z,99493.34
2022-12-29T15:26:51.959Z,99490.31
2022-12-29T15:29:39.382Z,99493.94
2022-12-29T15:32:18.017Z,99490.44
2022-12-29T15:34:46.811Z,99493.16
2022-12-29T15:37:22.121Z,99495.22
2022-12-29T15:39:49.038Z,99508.88
2022-12-29T15:42:36.914Z,99516.72
2022-12-29T15:45:11.548Z,99519.47
2022-12-29T15:47:39.317Z,99504.31
2022-12-29T15:50:27.130Z,99513.50
2022-12-29T15:52:53.541Z,99511.63
2022-12-29T15:55:42.227Z,99509.59
2022-12-29T15:58:27.636Z,99528.22
2022-12-29T16:00:59.786Z,99533.31
2022-12-29T16:03:37.646Z,99521.44
2022-12-29T16:06:26.812Z,99528.72
2022-12-29T16:09:17.786Z,99535.63
2022-12-29T16:11:52.697Z,99534.41
2022-12-29T16:14:25.741Z,99533.50
2022-12-29T16:16:52.219Z,99529.69
2022-12-29T16:19:38.476Z,99525.50
2022-12-29T16:22:12.468Z,99537.94
2022-12-29T16:24:41.042Z,99533.78
2022-12-29T16:27:23.248Z,99534.28
2022-12-29T16:29:55.202Z,99539.06
2022-12-29T16:32:32.105Z,99541.16
2022-12-29T16:35:18.284Z,99535.91
2022-12-29T16:37:45.409Z,99534.94
2022-12-29T16:40:31.424Z,99536.84
2022-12-29T16:43:04.527Z,99539.41
2022-12-29T16:45:46.017Z,99528.53
2022-12-29T16:48:15.364Z,99532.81
2022-12-29T16:50:44.810Z,99527.06
2022-12-29T16:53:29.060Z,99530.28
2022-12-29T16:55:57.712Z,99531.38
2022-12-29T16:58:27.921Z,99529.59
2022-12-29T17:00:58.779Z,99526.44
2022-12-29T17:03:33.559Z,99532.81
2022-12-29T17:05:59.861Z,99532.44
2022-12-29T17:08:26.160Z,99537.38
2022-12-29T17:10:57.523Z,99532.31
2022-12-29T17:13:23.825Z,99522.59
2022-12-29T17:15:50.183Z,99536.94
2022-12-29T17:18:16.506Z,99551.16
2022-12-29T17:20:42.786Z,99571.88
2022-12-29T17:23:19.886Z,99582.31
2022-12-29T17:25:54.480Z,99600.19
2022-12-29T17:28:30.369Z,99589.69
2022-12-29T17:31:01.109Z,99589.09
2022-12-29T17:33:28.445Z,99601.13
2022-12-29T17:35:55.861Z,99595.44
2022-12-29T17:38:28.383Z,99578.50
2022-12-29T17:40:55.128Z,99587.28
2022-12-29T17:43:21.514Z,99589.00
2022-12-29T17:45:53.625Z,99590.31
2022-12-29T17:48:20.355Z,99581.78
2022-12-29T17:50:49.657Z,99595.06
2022-12-29T17:53:20.108Z,99593.78
2022-12-29T17:55:46.637Z,99588.59
2022-12-29T17:58:20.302Z,99591.31
2022-12-29T18:00:52.312Z,99598.28
2022-12-29T18:03:23.584Z,99596.69
2022-12-29T18:05:50.011Z,99597.41
2022-12-29T18:08:16.373Z,99601.50
2022-12-29T18:10:43.009Z,99607.38
2022-12-29T18:13:19.744Z,99608.09
2022-12-29T18:15:46.269Z,99615.97
2022-12-29T18:18:15.595Z,99614.91
2022-12-29T18:20:43.483Z,99619.13
2022-12-29T18:23:19.915Z,99616.91
2022-12-29T18:25:51.622Z,99620.72
2022-12-29T18:28:17.939Z,99627.47
2022-12-29T18:30:44.329Z,99630.25
2022-12-29T18:33:21.339Z,99629.66
2022-12-29T18:35:55.780Z,99636.38
2022-12-29T18:38:22.135Z,99642.34
2022-12-29T18:40:49.544Z,99631.47
2022-12-29T18:43:17.553Z,99632.06
2022-12-29T18:45:45.827Z,99644.72
2022-12-29T18:48:19.349Z,99635.13
2022-12-29T18:50:46.748Z,99645.59
2022-12-29T18:53:21.348Z,99639.41
2022-12-29T18:55:47.653Z,99637.66
2022-12-29T18:58:14.178Z,99650.72
2022-12-29T19:00:40.848Z,99649.63
2022-12-29T19:03:07.474Z,99651.31
2022-12-29T19:05:38.838Z,99644.88
2022-12-29T19:08:06.223Z,99649.03
2022-12-29T19:10:32.697Z,99645.81
2022-12-29T19:12:59.359Z,99655.69
2022-12-29T19:15:36.291Z,99657.47
2022-12-29T19:20:53.348Z,99653.97
2022-12-29T19:23:22.117Z,99665.25
2022-12-29T19:25:49.594Z,99664.41
2022-12-29T19:28:24.752Z,99675.22
2022-12-29T19:30:53.210Z,99673.81
2022-12-29T19:33:21.355Z,99681.34
2022-12-29T19:35:48.190Z,99692.84
2022-12-29T19:38:14.881Z,99698.44
2022-12-29T19:40:43.724Z,99702.66
2022-12-29T19:43:14.139Z,99703.09
2022-12-29T19:45:42.423Z,99699.81
2022-12-29T19:48:13.704Z,99704.69
2022-12-29T19:50:40.324Z,99701.88
2022-12-29T19:53:06.639Z,99708.94
2022-12-29T19:55:33.012Z,99713.31
2022-12-29T19:57:59.384Z,99718.66
2022-12-29T20:00:25.701Z,99706.22
2022-12-29T20:02:52.216Z,99703.53
2022-12-29T20:05:18.849Z,99712.22
2022-12-29T20:07:45.217Z,99718.66
2022-12-29T20:10:11.537Z,99717.03
2022-12-29T20:12:38.163Z,99723.53
2022-12-29T20:15:08.985Z,99723.00
2022-12-29T20:18:10.928Z,99726.66
2022-12-29T20:20:21.962Z,99728.06
2022-12-29T20:22:48.295Z,99732.63
2022-12-29T20:28:00.948Z,99744.47
2022-12-29T20:30:27.258Z,99741.47
2022-12-29T20:32:53.587Z,99741.72
2022-12-29T20:35:19.948Z,99748.50
2022-12-29T20:37:46.259Z,99736.44
2022-12-29T20:40:12.755Z,99747.31
2022-12-29T20:42:39.049Z,99745.19
2022-12-29T20:45:05.661Z,99752.66
2022-12-29T20:47:31.957Z,99748.47
2022-12-29T20:49:58.283Z,99763.66
2022-12-29T20:52:24.578Z,99759.59
2022-12-29T20:54:50.941Z,99764.53
2022-12-29T20:57:17.251Z,99764.75
2022-12-29T20:59:43.561Z,99768.13
2022-12-29T21:02:21.979Z,99770.97
2022-12-29T21:07:34.961Z,99771.47
2022-12-29T21:10:01.279Z,99787.50
2022-12-29T21:12:27.607Z,99776.59
2022-12-29T21:14:53.901Z,99783.06
2022-12-29T21:17:20.207Z,99777.03
2022-12-29T21:19:46.499Z,99787.97
2022-12-29T21:22:12.808Z,99787.81
2022-12-29T21:24:39.103Z,99791.09
2022-12-29T21:27:05.438Z,99785.28
2022-12-29T21:29:31.735Z,99797.53
2022-12-29T21:32:04.050Z,99798.72
2022-12-29T21:34:32.255Z,99809.94
2022-12-29T21:36:58.560Z,99814.81
2022-12-29T21:39:25.020Z,99813.66
2022-12-29T21:41:51.349Z,99807.88
2022-12-29T21:44:17.821Z,99814.38
2022-12-29T21:46:44.156Z,99820.59
2022-12-29T21:49:10.801Z,99816.19
2022-12-29T21:51:37.163Z,99824.09
2022-12-29T21:54:03.702Z,99821.97
2022-12-29T21:56:29.990Z,99833.56
2022-12-29T21:58:56.288Z,99841.03
2022-12-29T22:01:23.363Z,99830.44
2022-12-29T22:03:49.736Z,99824.19
2022-12-29T22:06:16.070Z,99835.56
2022-12-29T22:08:42.643Z,99830.22
2022-12-29T22:11:09.197Z,99832.75
2022-12-29T22:13:37.656Z,99837.63
2022-12-29T22:16:09.922Z,99835.19
2022-12-29T22:18:37.263Z,99836.41
2022-12-29T22:21:04.972Z,99832.06
2022-12-29T22:23:31.314Z,99833.81
2022-12-29T22:25:57.660Z,99840.00
2022-12-29T22:28:24.089Z,99847.19
2022-12-29T22:30:50.543Z,99844.66
2022-12-29T22:33:17.341Z,99841.59
2022-12-29T22:35:43.678Z,99844.34
2022-12-29T22:38:10.000Z,99854.59
2022-12-29T22:40:36.320Z,99843.78
2022-12-29T22:43:06.643Z,99849.19
2022-12-29T22:45:35.821Z,99843.56
2022-12-29T22:48:02.137Z,99842.97
2022-12-29T22:50:28.447Z,99854.34
2022-12-29T22:52:54.787Z,99853.25
2022-12-29T22:55:21.340Z,99857.00
2022-12-29T22:57:47.667Z,99850.44
2022-12-29T23:00:14.494Z,99863.38
2022-12-29T23:02:40.979Z,99862.19
2022-12-29T23:05:07.872Z,99859.56
2022-12-29T23:07:34.790Z,99863.94
2022-12-29T23:10:01.692Z,99862.03
2022-12-29T23:12:31.638Z,99870.66
2022-12-29T23:14:57.987Z,99875.38
2022-12-29T23:17:24.317Z,99882.97
2022-12-29T23:19:50.685Z,99887.28
2022-12-29T23:22:17.009Z,99892.78
2022-12-29T23:24:43.304Z,99885.22
2022-12-29T23:27:09.700Z,99895.44
2022-12-29T23:29:36.029Z,99897.44
2022-12-29T23:32:02.391Z,99898.75
2022-12-29T23:34:28.694Z,99908.97
2022-12-29T23:36:55.005Z,99918.13
2022-12-29T23:39:23.448Z,99915.94
2022-12-29T23:41:50.060Z,99921.97
2022-12-29T23:44:16.383Z,99923.13
2022-12-29T23:46:42.956Z,99929.44
2022-12-29T23:49:10.115Z,99936.50
2022-12-29T23:51:36.627Z,99942.34
2022-12-29T23:54:03.449Z,99932.97
2022-12-29T23:56:29.775Z,99930.53
2022-12-29T23:58:56.109Z,99938.59
